sensor_id;sensor_type;location;lat;lon;timestamp;pressure;altitude;pressure_sealevel;temperature;humidity
32733;BME280;11867;51.198;11.966;2022-07-22T00:00:33;100770.97;;;22.86;59.23
32733;BME280;11867;51.198;11.966;2022-07-22T00:05:35;100763.25;;;22.95;58.22
32733;BME280;11867;51.198;11.966;2022-07-22T00:10:38;100775.31;;;23.28;57.00
32733;BME280;11867;51.198;11.966;2022-07-22T00:15:42;100770.72;;;23.35;56.87
32733;BME280;11867;51.198;11.966;2022-07-22T00:20:44;100777.72;;;23.29;57.36
32733;BME280;11867;51.198;11.966;2022-07-22T00:25:47;100771.69;;;23.11;57.75
32733;BME280;11867;51.198;11.966;2022-07-22T00:30:51;100775.03;;;22.11;61.47
32733;BME280;11867;51.198;11.966;2022-07-22T00:35:54;100777.94;;;21.90;62.58
32733;BME280;11867;51.198;11.966;2022-07-22T00:40:57;100757.56;;;22.11;61.97
32733;BME280;11867;51.198;11.966;2022-07-22T00:46:01;100757.22;;;22.12;62.04
32733;BME280;11867;51.198;11.966;2022-07-22T00:51:03;100765.22;;;21.89;63.09
32733;BME280;11867;51.198;11.966;2022-07-22T00:56:06;100762.06;;;21.91;62.72
32733;BME280;11867;51.198;11.966;2022-07-22T01:01:10;100766.81;;;21.66;63.97
32733;BME280;11867;51.198;11.966;2022-07-22T01:06:14;100755.97;;;21.61;63.81
32733;BME280;11867;51.198;11.966;2022-07-22T01:11:18;100754.09;;;21.65;63.83
32733;BME280;11867;51.198;11.966;2022-07-22T01:16:23;100755.50;;;21.71;63.87
32733;BME280;11867;51.198;11.966;2022-07-22T01:21:27;100748.88;;;21.51;63.73
32733;BME280;11867;51.198;11.966;2022-07-22T01:26:29;100752.97;;;21.32;64.85
32733;BME280;11867;51.198;11.966;2022-07-22T01:31:32;100742.94;;;21.28;65.34
32733;BME280;11867;51.198;11.966;2022-07-22T01:36:35;100751.91;;;21.25;65.89
32733;BME280;11867;51.198;11.966;2022-07-22T01:41:38;100758.84;;;21.52;64.30
32733;BME280;11867;51.198;11.966;2022-07-22T01:46:40;100750.91;;;21.29;65.37
32733;BME280;11867;51.198;11.966;2022-07-22T01:51:44;100754.91;;;21.53;64.64
32733;BME280;11867;51.198;11.966;2022-07-22T01:56:47;100742.81;;;21.36;65.16
32733;BME280;11867;51.198;11.966;2022-07-22T02:01:49;100749.34;;;21.07;66.47
32733;BME280;11867;51.198;11.966;2022-07-22T02:06:53;100762.72;;;21.05;66.30
32733;BME280;11867;51.198;11.966;2022-07-22T02:11:56;100760.03;;;20.63;68.10
32733;BME280;11867;51.198;11.966;2022-07-22T02:16:58;100769.16;;;20.64;67.54
32733;BME280;11867;51.198;11.966;2022-07-22T02:22:03;100760.34;;;20.41;68.62
32733;BME280;11867;51.198;11.966;2022-07-22T02:27:05;100766.09;;;20.78;67.43
32733;BME280;11867;51.198;11.966;2022-07-22T02:32:08;100754.19;;;20.56;67.55
32733;BME280;11867;51.198;11.966;2022-07-22T02:37:12;100759.75;;;20.05;69.84
32733;BME280;11867;51.198;11.966;2022-07-22T02:42:15;100763.59;;;19.83;71.17
32733;BME280;11867;51.198;11.966;2022-07-22T02:47:17;100766.25;;;19.71;72.29
32733;BME280;11867;51.198;11.966;2022-07-22T02:52:21;100769.84;;;20.31;70.08
32733;BME280;11867;51.198;11.966;2022-07-22T02:57:23;100767.00;;;20.40;68.91
32733;BME280;11867;51.198;11.966;2022-07-22T03:02:26;100770.88;;;20.68;68.34
32733;BME280;11867;51.198;11.966;2022-07-22T03:07:30;100768.81;;;20.35;69.04
32733;BME280;11867;51.198;11.966;2022-07-22T03:12:32;100772.03;;;20.16;69.56
32733;BME280;11867;51.198;11.966;2022-07-22T03:17:35;100773.34;;;20.40;69.21
32733;BME280;11867;51.198;11.966;2022-07-22T03:22:39;100775.06;;;20.74;67.29
32733;BME280;11867;51.198;11.966;2022-07-22T03:27:42;100780.72;;;20.06;69.86
32733;BME280;11867;51.198;11.966;2022-07-22T03:32:44;100783.91;;;20.47;67.78
32733;BME280;11867;51.198;11.966;2022-07-22T03:37:53;100792.63;;;21.00;66.01
32733;BME280;11867;51.198;11.966;2022-07-22T03:42:55;100790.22;;;21.10;65.48
32733;BME280;11867;51.198;11.966;2022-07-22T03:47:58;100786.38;;;20.40;69.17
32733;BME280;11867;51.198;11.966;2022-07-22T03:53:02;100789.69;;;20.84;67.10
32733;BME280;11867;51.198;11.966;2022-07-22T03:58:04;100792.81;;;20.61;68.13
32733;BME280;11867;51.198;11.966;2022-07-22T04:03:07;100794.44;;;20.03;70.62
32733;BME280;11867;51.198;11.966;2022-07-22T04:08:11;100785.31;;;20.32;69.03
32733;BME280;11867;51.198;11.966;2022-07-22T04:13:13;100790.28;;;20.68;67.94
32733;BME280;11867;51.198;11.966;2022-07-22T04:18:16;100787.03;;;20.66;67.81
32733;BME280;11867;51.198;11.966;2022-07-22T04:23:20;100786.31;;;20.27;69.35
32733;BME280;11867;51.198;11.966;2022-07-22T04:28:22;100773.22;;;20.36;69.52
32733;BME280;11867;51.198;11.966;2022-07-22T04:33:25;100780.13;;;20.30;69.82
32733;BME280;11867;51.198;11.966;2022-07-22T04:38:29;100781.72;;;20.61;68.69
32733;BME280;11867;51.198;11.966;2022-07-22T04:43:31;100782.41;;;21.25;66.41
32733;BME280;11867;51.198;11.966;2022-07-22T04:48:35;100782.84;;;20.09;70.77
32733;BME280;11867;51.198;11.966;2022-07-22T04:53:42;100777.16;;;20.06;70.96
32733;BME280;11867;51.198;11.966;2022-07-22T04:58:50;100776.25;;;20.23;70.71
32733;BME280;11867;51.198;11.966;2022-07-22T05:03:53;100773.06;;;20.84;68.64
32733;BME280;11867;51.198;11.966;2022-07-22T05:08:57;100770.00;;;21.43;66.01
32733;BME280;11867;51.198;11.966;2022-07-22T05:14:00;100772.81;;;21.68;64.35
32733;BME280;11867;51.198;11.966;2022-07-22T05:19:03;100770.78;;;22.26;62.17
32733;BME280;11867;51.198;11.966;2022-07-22T05:24:07;100781.13;;;22.54;61.23
32733;BME280;11867;51.198;11.966;2022-07-22T05:29:10;100774.56;;;22.22;61.67
32733;BME280;11867;51.198;11.966;2022-07-22T05:34:12;100772.25;;;22.24;61.83
32733;BME280;11867;51.198;11.966;2022-07-22T05:39:16;100768.66;;;21.74;64.26
32733;BME280;11867;51.198;11.966;2022-07-22T05:44:19;100770.06;;;21.68;64.47
32733;BME280;11867;51.198;11.966;2022-07-22T05:49:22;100770.28;;;21.63;64.58
32733;BME280;11867;51.198;11.966;2022-07-22T05:54:28;100780.34;;;21.67;63.71
32733;BME280;11867;51.198;11.966;2022-07-22T05:59:30;100784.19;;;21.29;65.49
32733;BME280;11867;51.198;11.966;2022-07-22T06:04:33;100789.25;;;21.61;65.44
32733;BME280;11867;51.198;11.966;2022-07-22T06:09:37;100778.16;;;21.61;65.47
32733;BME280;11867;51.198;11.966;2022-07-22T06:14:40;100786.38;;;21.69;64.82
32733;BME280;11867;51.198;11.966;2022-07-22T06:19:42;100783.72;;;21.98;63.67
32733;BME280;11867;51.198;11.966;2022-07-22T06:24:46;100782.91;;;22.34;62.85
32733;BME280;11867;51.198;11.966;2022-07-22T06:29:49;100781.41;;;21.75;64.43
32733;BME280;11867;51.198;11.966;2022-07-22T06:34:51;100796.22;;;22.04;64.53
32733;BME280;11867;51.198;11.966;2022-07-22T06:39:55;100783.47;;;21.90;63.31
32733;BME280;11867;51.198;11.966;2022-07-22T06:44:58;100781.69;;;22.60;62.06
32733;BME280;11867;51.198;11.966;2022-07-22T06:50:09;100786.72;;;22.29;62.16
32733;BME280;11867;51.198;11.966;2022-07-22T06:55:15;100770.72;;;22.39;61.87
32733;BME280;11867;51.198;11.966;2022-07-22T07:00:18;100771.72;;;22.59;61.99
32733;BME280;11867;51.198;11.966;2022-07-22T07:05:20;100775.28;;;22.71;60.86
32733;BME280;11867;51.198;11.966;2022-07-22T07:10:28;100781.31;;;22.61;60.03
32733;BME280;11867;51.198;11.966;2022-07-22T07:15:31;100784.97;;;22.49;60.21
32733;BME280;11867;51.198;11.966;2022-07-22T07:20:33;100778.56;;;23.02;58.83
32733;BME280;11867;51.198;11.966;2022-07-22T07:25:38;100781.69;;;22.88;59.81
32733;BME280;11867;51.198;11.966;2022-07-22T07:30:41;100789.38;;;23.35;57.71
32733;BME280;11867;51.198;11.966;2022-07-22T07:35:44;100779.47;;;23.06;58.12
32733;BME280;11867;51.198;11.966;2022-07-22T07:40:47;100779.97;;;23.24;57.91
32733;BME280;11867;51.198;11.966;2022-07-22T07:45:50;100781.06;;;23.67;56.73
32733;BME280;11867;51.198;11.966;2022-07-22T07:50:53;100782.84;;;23.43;56.52
32733;BME280;11867;51.198;11.966;2022-07-22T07:55:57;100769.06;;;23.63;55.32
32733;BME280;11867;51.198;11.966;2022-07-22T08:00:59;100775.84;;;23.49;56.30
32733;BME280;11867;51.198;11.966;2022-07-22T08:06:02;100777.41;;;23.63;55.98
32733;BME280;11867;51.198;11.966;2022-07-22T08:11:11;100761.06;;;24.28;54.54
32733;BME280;11867;51.198;11.966;2022-07-22T08:16:21;100759.97;;;24.68;53.36
32733;BME280;11867;51.198;11.966;2022-07-22T08:21:27;100761.13;;;25.06;50.66
32733;BME280;11867;51.198;11.966;2022-07-22T08:26:31;100756.41;;;25.10;50.14
32733;BME280;11867;51.198;11.966;2022-07-22T08:31:34;100759.63;;;25.12;50.57
32733;BME280;11867;51.198;11.966;2022-07-22T08:36:37;100758.97;;;25.39;49.87
32733;BME280;11867;51.198;11.966;2022-07-22T08:41:41;100768.63;;;25.68;49.30
32733;BME280;11867;51.198;11.966;2022-07-22T08:46:45;100760.72;;;24.85;51.17
32733;BME280;11867;51.198;11.966;2022-07-22T08:51:47;100759.88;;;25.04;50.44
32733;BME280;11867;51.198;11.966;2022-07-22T08:56:52;100754.19;;;25.20;49.55
32733;BME280;11867;51.198;11.966;2022-07-22T09:02:02;100750.41;;;25.51;49.63
32733;BME280;11867;51.198;11.966;2022-07-22T09:07:05;100739.94;;;25.71;49.24
32733;BME280;11867;51.198;11.966;2022-07-22T09:12:09;100743.78;;;25.63;48.54
32733;BME280;11867;51.198;11.966;2022-07-22T09:17:23;100755.84;;;26.16;47.49
32733;BME280;11867;51.198;11.966;2022-07-22T09:22:36;100749.63;;;26.57;45.73
32733;BME280;11867;51.198;11.966;2022-07-22T09:27:44;100757.53;;;26.82;45.80
32733;BME280;11867;51.198;11.966;2022-07-22T09:32:48;100758.69;;;26.20;47.50
32733;BME280;11867;51.198;11.966;2022-07-22T09:37:54;100750.63;;;26.15;47.76
32733;BME280;11867;51.198;11.966;2022-07-22T09:42:59;100749.72;;;26.98;45.63
32733;BME280;11867;51.198;11.966;2022-07-22T09:48:03;100750.97;;;27.04;45.51
32733;BME280;11867;51.198;11.966;2022-07-22T09:53:05;100752.69;;;26.78;46.26
32733;BME280;11867;51.198;11.966;2022-07-22T09:58:09;100758.53;;;26.36;47.20
32733;BME280;11867;51.198;11.966;2022-07-22T10:03:19;100756.13;;;26.65;46.33
32733;BME280;11867;51.198;11.966;2022-07-22T10:08:25;100755.84;;;27.11;46.04
32733;BME280;11867;51.198;11.966;2022-07-22T10:13:32;100755.38;;;27.43;45.07
32733;BME280;11867;51.198;11.966;2022-07-22T10:18:36;100752.69;;;27.57;43.32
32733;BME280;11867;51.198;11.966;2022-07-22T10:24:11;100755.41;;;27.46;43.38
32733;BME280;11867;51.198;11.966;2022-07-22T10:29:25;100748.81;;;27.69;42.24
32733;BME280;11867;51.198;11.966;2022-07-22T10:34:28;100743.16;;;27.65;42.63
32733;BME280;11867;51.198;11.966;2022-07-22T10:39:31;100748.66;;;27.51;43.27
32733;BME280;11867;51.198;11.966;2022-07-22T10:44:47;100743.16;;;28.17;42.53
32733;BME280;11867;51.198;11.966;2022-07-22T10:56:06;100732.41;;;29.57;39.99
32733;BME280;11867;51.198;11.966;2022-07-22T11:01:13;100725.09;;;28.07;42.36
32733;BME280;11867;51.198;11.966;2022-07-22T11:06:19;100721.16;;;28.23;42.61
32733;BME280;11867;51.198;11.966;2022-07-22T11:11:35;100719.16;;;29.93;38.66
32733;BME280;11867;51.198;11.966;2022-07-22T11:16:40;100723.06;;;28.88;41.52
32733;BME280;11867;51.198;11.966;2022-07-22T11:21:49;100711.91;;;29.64;39.27
32733;BME280;11867;51.198;11.966;2022-07-22T11:26:56;100704.66;;;29.95;38.26
32733;BME280;11867;51.198;11.966;2022-07-22T11:32:09;100713.13;;;29.59;38.95
32733;BME280;11867;51.198;11.966;2022-07-22T11:37:13;100703.00;;;30.30;38.12
32733;BME280;11867;51.198;11.966;2022-07-22T11:42:17;100698.66;;;29.96;38.11
32733;BME280;11867;51.198;11.966;2022-07-22T11:47:21;100698.56;;;30.32;37.17
32733;BME280;11867;51.198;11.966;2022-07-22T11:52:23;100693.78;;;31.97;33.99
32733;BME280;11867;51.198;11.966;2022-07-22T11:57:26;100683.56;;;32.45;32.83
32733;BME280;11867;51.198;11.966;2022-07-22T12:02:30;100690.66;;;30.90;34.39
32733;BME280;11867;51.198;11.966;2022-07-22T12:07:37;100682.91;;;32.33;34.05
32733;BME280;11867;51.198;11.966;2022-07-22T12:12:40;100673.78;;;32.22;33.32
32733;BME280;11867;51.198;11.966;2022-07-22T12:17:44;100672.25;;;30.71;37.04
32733;BME280;11867;51.198;11.966;2022-07-22T12:22:47;100675.75;;;31.46;36.90
32733;BME280;11867;51.198;11.966;2022-07-22T12:27:59;100675.59;;;31.67;36.63
32733;BME280;11867;51.198;11.966;2022-07-22T12:33:03;100672.28;;;31.72;35.26
32733;BME280;11867;51.198;11.966;2022-07-22T12:38:07;100659.56;;;31.95;35.59
32733;BME280;11867;51.198;11.966;2022-07-22T12:43:10;100662.16;;;31.33;36.65
32733;BME280;11867;51.198;11.966;2022-07-22T12:48:13;100654.13;;;32.76;34.43
32733;BME280;11867;51.198;11.966;2022-07-22T12:53:17;100651.63;;;31.86;35.60
32733;BME280;11867;51.198;11.966;2022-07-22T12:58:21;100638.56;;;32.03;34.13
32733;BME280;11867;51.198;11.966;2022-07-22T13:03:25;100635.31;;;31.22;36.42
32733;BME280;11867;51.198;11.966;2022-07-22T13:08:29;100630.41;;;32.12;35.14
32733;BME280;11867;51.198;11.966;2022-07-22T13:13:46;100622.28;;;31.80;36.64
32733;BME280;11867;51.198;11.966;2022-07-22T13:18:50;100615.66;;;32.59;32.82
32733;BME280;11867;51.198;11.966;2022-07-22T13:23:53;100606.94;;;32.19;34.29
32733;BME280;11867;51.198;11.966;2022-07-22T13:28:56;100606.53;;;32.48;33.77
32733;BME280;11867;51.198;11.966;2022-07-22T13:34:00;100608.06;;;30.48;35.87
32733;BME280;11867;51.198;11.966;2022-07-22T13:39:03;100606.94;;;31.43;35.25
32733;BME280;11867;51.198;11.966;2022-07-22T13:44:06;100610.41;;;32.30;34.16
32733;BME280;11867;51.198;11.966;2022-07-22T13:49:12;100597.44;;;32.64;32.78
32733;BME280;11867;51.198;11.966;2022-07-22T13:54:15;100599.47;;;32.63;32.92
32733;BME280;11867;51.198;11.966;2022-07-22T13:59:17;100595.75;;;32.70;32.20
32733;BME280;11867;51.198;11.966;2022-07-22T14:04:21;100601.38;;;30.84;35.72
32733;BME280;11867;51.198;11.966;2022-07-22T14:09:24;100604.38;;;31.18;36.31
32733;BME280;11867;51.198;11.966;2022-07-22T14:14:42;100596.31;;;31.62;35.85
32733;BME280;11867;51.198;11.966;2022-07-22T14:19:46;100595.19;;;31.90;34.09
32733;BME280;11867;51.198;11.966;2022-07-22T14:24:51;100602.97;;;32.44;34.13
32733;BME280;11867;51.198;11.966;2022-07-22T14:29:53;100610.66;;;32.12;33.50
32733;BME280;11867;51.198;11.966;2022-07-22T14:34:57;100601.19;;;32.26;33.37
32733;BME280;11867;51.198;11.966;2022-07-22T14:40:00;100589.53;;;32.55;33.27
32733;BME280;11867;51.198;11.966;2022-07-22T14:45:04;100587.19;;;31.85;34.48
32733;BME280;11867;51.198;11.966;2022-07-22T14:50:11;100579.31;;;32.03;34.42
32733;BME280;11867;51.198;11.966;2022-07-22T14:55:13;100578.69;;;31.88;34.33
32733;BME280;11867;51.198;11.966;2022-07-22T15:00:17;100579.44;;;30.61;36.87
32733;BME280;11867;51.198;11.966;2022-07-22T15:05:20;100569.94;;;31.41;35.48
32733;BME280;11867;51.198;11.966;2022-07-22T15:10:23;100554.06;;;31.16;35.17
32733;BME280;11867;51.198;11.966;2022-07-22T15:15:26;100558.75;;;30.89;37.31
32733;BME280;11867;51.198;11.966;2022-07-22T15:20:30;100551.34;;;31.09;36.84
32733;BME280;11867;51.198;11.966;2022-07-22T15:25:33;100536.44;;;29.93;38.03
32733;BME280;11867;51.198;11.966;2022-07-22T15:30:35;100543.56;;;30.12;38.42
32733;BME280;11867;51.198;11.966;2022-07-22T15:35:39;100545.06;;;30.35;37.88
32733;BME280;11867;51.198;11.966;2022-07-22T15:40:42;100544.66;;;30.26;37.96
32733;BME280;11867;51.198;11.966;2022-07-22T15:45:44;100541.00;;;29.48;39.01
32733;BME280;11867;51.198;11.966;2022-07-22T15:50:48;100549.53;;;30.22;38.38
32733;BME280;11867;51.198;11.966;2022-07-22T15:55:51;100543.72;;;29.76;38.41
32733;BME280;11867;51.198;11.966;2022-07-22T16:00:53;100540.09;;;29.83;38.65
32733;BME280;11867;51.198;11.966;2022-07-22T16:05:57;100533.44;;;30.29;37.64
32733;BME280;11867;51.198;11.966;2022-07-22T16:11:01;100533.56;;;30.08;38.28
32733;BME280;11867;51.198;11.966;2022-07-22T16:16:05;100529.72;;;29.51;39.16
32733;BME280;11867;51.198;11.966;2022-07-22T16:21:09;100520.91;;;29.49;38.66
32733;BME280;11867;51.198;11.966;2022-07-22T16:26:11;100524.19;;;29.30;39.35
32733;BME280;11867;51.198;11.966;2022-07-22T16:31:14;100515.38;;;29.13;39.42
32733;BME280;11867;51.198;11.966;2022-07-22T16:36:18;100519.00;;;28.89;40.03
32733;BME280;11867;51.198;11.966;2022-07-22T16:41:21;100516.97;;;29.00;39.93
32733;BME280;11867;51.198;11.966;2022-07-22T16:46:27;100512.97;;;29.15;39.78
32733;BME280;11867;51.198;11.966;2022-07-22T16:51:31;100516.03;;;29.71;39.00
32733;BME280;11867;51.198;11.966;2022-07-22T16:56:33;100506.38;;;29.83;38.88
32733;BME280;11867;51.198;11.966;2022-07-22T17:01:36;100499.56;;;29.77;38.73
32733;BME280;11867;51.198;11.966;2022-07-22T17:06:40;100503.69;;;29.40;40.12
32733;BME280;11867;51.198;11.966;2022-07-22T17:11:43;100498.16;;;29.11;40.19
32733;BME280;11867;51.198;11.966;2022-07-22T17:16:45;100500.91;;;29.22;40.19
32733;BME280;11867;51.198;11.966;2022-07-22T17:21:49;100504.56;;;28.65;41.60
32733;BME280;11867;51.198;11.966;2022-07-22T17:26:52;100494.16;;;28.66;41.31
32733;BME280;11867;51.198;11.966;2022-07-22T17:31:54;100501.34;;;28.70;41.35
32733;BME280;11867;51.198;11.966;2022-07-22T17:36:58;100501.34;;;29.03;40.18
32733;BME280;11867;51.198;11.966;2022-07-22T17:42:01;100497.34;;;28.64;41.09
32733;BME280;11867;51.198;11.966;2022-07-22T17:47:04;100523.31;;;28.18;42.23
32733;BME280;11867;51.198;11.966;2022-07-22T17:52:08;100526.06;;;28.04;42.88
32733;BME280;11867;51.198;11.966;2022-07-22T17:57:11;100526.38;;;27.84;42.99
32733;BME280;11867;51.198;11.966;2022-07-22T18:02:13;100519.44;;;27.56;42.98
32733;BME280;11867;51.198;11.966;2022-07-22T18:07:17;100516.53;;;27.31;43.50
32733;BME280;11867;51.198;11.966;2022-07-22T18:12:20;100523.31;;;27.27;44.13
32733;BME280;11867;51.198;11.966;2022-07-22T18:17:22;100526.69;;;27.06;44.40
32733;BME280;11867;51.198;11.966;2022-07-22T18:22:26;100527.19;;;26.63;45.08
32733;BME280;11867;51.198;11.966;2022-07-22T18:27:29;100529.44;;;26.50;45.90
32733;BME280;11867;51.198;11.966;2022-07-22T18:32:32;100546.78;;;26.29;46.44
32733;BME280;11867;51.198;11.966;2022-07-22T18:37:35;100551.47;;;26.18;46.50
32733;BME280;11867;51.198;11.966;2022-07-22T18:42:38;100547.22;;;25.97;46.88
32733;BME280;11867;51.198;11.966;2022-07-22T18:47:41;100544.16;;;25.80;46.97
32733;BME280;11867;51.198;11.966;2022-07-22T18:52:44;100546.63;;;25.54;48.16
32733;BME280;11867;51.198;11.966;2022-07-22T18:57:47;100536.69;;;25.27;48.72
32733;BME280;11867;51.198;11.966;2022-07-22T19:02:49;100537.50;;;25.27;48.64
32733;BME280;11867;51.198;11.966;2022-07-22T19:07:53;100549.97;;;25.10;49.18
32733;BME280;11867;51.198;11.966;2022-07-22T19:12:57;100550.72;;;24.84;49.90
32733;BME280;11867;51.198;11.966;2022-07-22T19:18:00;100565.69;;;24.72;50.28
32733;BME280;11867;51.198;11.966;2022-07-22T19:23:04;100586.53;;;24.59;51.00
32733;BME280;11867;51.198;11.966;2022-07-22T19:28:06;100585.38;;;24.41;51.33
32733;BME280;11867;51.198;11.966;2022-07-22T19:33:09;100585.28;;;24.37;51.04
32733;BME280;11867;51.198;11.966;2022-07-22T19:38:13;100591.53;;;24.30;51.20
32733;BME280;11867;51.198;11.966;2022-07-22T19:43:15;100599.25;;;24.17;51.54
32733;BME280;11867;51.198;11.966;2022-07-22T19:48:18;100610.63;;;24.09;51.89
32733;BME280;11867;51.198;11.966;2022-07-22T19:53:22;100604.88;;;23.82;52.76
32733;BME280;11867;51.198;11.966;2022-07-22T19:58:26;100624.91;;;23.72;52.97
32733;BME280;11867;51.198;11.966;2022-07-22T20:03:28;100627.50;;;23.65;53.53
32733;BME280;11867;51.198;11.966;2022-07-22T20:08:33;100632.94;;;23.57;53.27
32733;BME280;11867;51.198;11.966;2022-07-22T20:13:38;100634.41;;;23.71;53.25
32733;BME280;11867;51.198;11.966;2022-07-22T20:18:51;100638.34;;;23.34;54.17
32733;BME280;11867;51.198;11.966;2022-07-22T20:23:55;100635.38;;;23.43;54.06
32733;BME280;11867;51.198;11.966;2022-07-22T20:28:58;100632.63;;;23.11;55.67
32733;BME280;11867;51.198;11.966;2022-07-22T20:34:02;100630.34;;;23.17;54.85
32733;BME280;11867;51.198;11.966;2022-07-22T20:39:06;100646.91;;;22.82;56.28
32733;BME280;11867;51.198;11.966;2022-07-22T20:44:08;100638.31;;;22.87;56.00
32733;BME280;11867;51.198;11.966;2022-07-22T20:49:11;100644.06;;;22.78;56.59
32733;BME280;11867;51.198;11.966;2022-07-22T20:54:15;100641.06;;;22.71;56.25
32733;BME280;11867;51.198;11.966;2022-07-22T20:59:18;100642.25;;;22.42;57.76
32733;BME280;11867;51.198;11.966;2022-07-22T21:04:20;100655.03;;;22.18;57.67
32733;BME280;11867;51.198;11.966;2022-07-22T21:09:24;100658.97;;;22.29;58.29
32733;BME280;11867;51.198;11.966;2022-07-22T21:14:26;100663.69;;;22.57;58.34
32733;BME280;11867;51.198;11.966;2022-07-22T21:19:29;100656.25;;;22.89;56.41
32733;BME280;11867;51.198;11.966;2022-07-22T21:24:33;100670.78;;;22.54;57.06
32733;BME280;11867;51.198;11.966;2022-07-22T21:29:35;100667.25;;;22.42;58.12
32733;BME280;11867;51.198;11.966;2022-07-22T21:34:38;100676.84;;;22.44;57.78
32733;BME280;11867;51.198;11.966;2022-07-22T21:39:42;100683.72;;;22.63;57.15
32733;BME280;11867;51.198;11.966;2022-07-22T21:44:44;100669.84;;;22.22;58.35
32733;BME280;11867;51.198;11.966;2022-07-22T21:49:47;100684.44;;;22.60;57.69
32733;BME280;11867;51.198;11.966;2022-07-22T21:54:51;100686.31;;;23.00;55.89
32733;BME280;11867;51.198;11.966;2022-07-22T21:59:53;100679.81;;;22.80;56.80
32733;BME280;11867;51.198;11.966;2022-07-22T22:04:56;100675.78;;;22.77;56.42
32733;BME280;11867;51.198;11.966;2022-07-22T22:09:59;100680.41;;;22.45;57.66
32733;BME280;11867;51.198;11.966;2022-07-22T22:15:02;100682.22;;;22.37;58.00
32733;BME280;11867;51.198;11.966;2022-07-22T22:20:05;100678.47;;;22.45;58.00
32733;BME280;11867;51.198;11.966;2022-07-22T22:25:10;100685.41;;;21.74;59.72
32733;BME280;11867;51.198;11.966;2022-07-22T22:30:13;100683.00;;;21.48;60.37
32733;BME280;11867;51.198;11.966;2022-07-22T22:35:16;100681.25;;;21.43;60.20
32733;BME280;11867;51.198;11.966;2022-07-22T22:40:20;100666.34;;;21.35;61.37
32733;BME280;11867;51.198;11.966;2022-07-22T22:45:23;100666.53;;;21.30;61.05
32733;BME280;11867;51.198;11.966;2022-07-22T22:50:25;100663.44;;;21.32;60.75
32733;BME280;11867;51.198;11.966;2022-07-22T22:55:29;100662.69;;;21.10;61.56
32733;BME280;11867;51.198;11.966;2022-07-22T23:00:31;100644.44;;;20.97;62.27
32733;BME280;11867;51.198;11.966;2022-07-22T23:05:34;100643.31;;;20.98;62.28
32733;BME280;11867;51.198;11.966;2022-07-22T23:10:40;100639.97;;;21.05;61.73
32733;BME280;11867;51.198;11.966;2022-07-22T23:15:43;100626.44;;;21.28;61.14
32733;BME280;11867;51.198;11.966;2022-07-22T23:20:46;100634.28;;;21.01;62.21
32733;BME280;11867;51.198;11.966;2022-07-22T23:25:54;100643.31;;;20.65;63.79
32733;BME280;11867;51.198;11.966;2022-07-22T23:30:56;100644.22;;;20.90;62.57
32733;BME280;11867;51.198;11.966;2022-07-22T23:35:59;100642.78;;;20.71;63.36
32733;BME280;11867;51.198;11.966;2022-07-22T23:41:03;100644.88;;;20.87;62.63
32733;BME280;11867;51.198;11.966;2022-07-22T23:46:05;100648.28;;;20.59;63.35
32733;BME280;11867;51.198;11.966;2022-07-22T23:51:08;100644.69;;;20.16;64.65
32733;BME280;11867;51.198;11.966;2022-07-22T23:56:12;100630.84;;;20.38;64.14
